createdAt,value
2022-07-25T00:00:51.217Z,2.20
2022-07-25T00:03:56.601Z,2.05
2022-07-25T00:07:00.657Z,2.42
2022-07-25T00:10:06.275Z,2.22
2022-07-25T00:13:13.408Z,1.92
2022-07-25T00:16:18.153Z,2.12
2022-07-25T00:19:22.292Z,2.23
2022-07-25T00:22:25.940Z,2.43
2022-07-25T00:25:29.958Z,2.60
2022-07-25T00:28:35.496Z,2.50
2022-07-25T00:31:39.846Z,2.40
2022-07-25T00:34:43.128Z,2.47
2022-07-25T00:37:46.075Z,2.70
2022-07-25T00:40:55.668Z,2.53
2022-07-25T00:44:01.036Z,2.30
2022-07-25T00:47:04.204Z,2.60
2022-07-25T00:50:07.952Z,2.62
2022-07-25T00:53:14.371Z,2.60
2022-07-25T00:56:20.071Z,2.55
2022-07-25T00:59:28.887Z,2.67
2022-07-25T01:02:32.093Z,2.67
2022-07-25T01:05:35.681Z,2.75
2022-07-25T01:08:39.750Z,2.50
2022-07-25T01:14:46.210Z,2.87
2022-07-25T01:17:51.248Z,2.50
2022-07-25T01:23:56.971Z,3.00
2022-07-25T01:27:00.769Z,2.65
2022-07-25T01:30:09.218Z,2.58
2022-07-25T01:33:17.433Z,2.70
2022-07-25T01:36:20.688Z,3.10
2022-07-25T01:39:23.478Z,3.25
2022-07-25T01:42:28.635Z,2.95
2022-07-25T01:45:33.014Z,3.08
2022-07-25T01:48:37.159Z,3.00
2022-07-25T01:51:43.061Z,2.90
2022-07-25T01:54:47.363Z,3.17
2022-07-25T01:57:52.258Z,3.20
2022-07-25T02:00:56.680Z,2.87
2022-07-25T02:04:04.691Z,3.10
2022-07-25T02:07:09.244Z,2.97
2022-07-25T02:10:13.856Z,3.47
2022-07-25T02:13:16.795Z,3.17
2022-07-25T02:16:29.212Z,3.40
2022-07-25T02:19:32.588Z,3.03
2022-07-25T02:22:36.883Z,2.97
2022-07-25T02:25:39.863Z,3.33
2022-07-25T02:28:44.460Z,2.92
2022-07-25T02:31:50.963Z,3.28
2022-07-25T02:34:54.761Z,3.42
2022-07-25T02:37:58.477Z,3.15
2022-07-25T02:41:02.512Z,4.10
2022-07-25T02:44:08.098Z,3.47
2022-07-25T02:47:16.367Z,3.53
2022-07-25T02:50:20.963Z,3.15
2022-07-25T02:53:47.074Z,3.28
2022-07-25T02:56:50.035Z,3.53
2022-07-25T02:59:53.451Z,3.40
2022-07-25T03:02:58.772Z,4.13
2022-07-25T03:09:06.476Z,3.35
2022-07-25T03:12:11.277Z,3.37
2022-07-25T03:15:14.685Z,3.55
2022-07-25T03:18:17.875Z,3.50
2022-07-25T03:21:21.336Z,4.22
2022-07-25T03:24:25.015Z,3.22
2022-07-25T03:27:28.204Z,3.22
2022-07-25T03:30:32.148Z,3.45
2022-07-25T03:33:35.772Z,3.42
2022-07-25T03:36:39.139Z,3.43
2022-07-25T03:39:42.756Z,3.50
2022-07-25T03:42:46.002Z,3.77
2022-07-25T03:45:49.661Z,3.40
2022-07-25T03:48:53.365Z,3.53
2022-07-25T03:51:57.056Z,3.87
2022-07-25T03:55:01.487Z,3.22
2022-07-25T03:58:04.831Z,3.37
2022-07-25T04:01:08.680Z,3.83
2022-07-25T04:04:19.491Z,3.20
2022-07-25T04:07:24.679Z,3.80
2022-07-25T04:10:29.174Z,3.70
2022-07-25T04:13:33.448Z,3.42
2022-07-25T04:16:39.352Z,3.40
2022-07-25T04:19:49.562Z,3.60
2022-07-25T04:22:53.352Z,3.30
2022-07-25T04:26:00.478Z,3.60
2022-07-25T04:29:18.932Z,3.47
2022-07-25T04:32:28.570Z,3.28
2022-07-25T04:35:32.235Z,3.75
2022-07-25T04:38:38.897Z,3.45
2022-07-25T04:41:42.354Z,3.25
2022-07-25T04:44:50.331Z,3.35
2022-07-25T04:47:56.935Z,3.08
2022-07-25T04:51:05.217Z,3.45
2022-07-25T04:54:14.675Z,3.22
2022-07-25T04:57:19.360Z,4.28
2022-07-25T05:00:27.963Z,3.95
2022-07-25T05:03:35.106Z,3.90
2022-07-25T05:06:58.322Z,4.47
2022-07-25T05:10:02.219Z,4.10
2022-07-25T05:16:51.745Z,4.17
2022-07-25T05:19:58.949Z,3.58
2022-07-25T05:23:11.008Z,3.72
2022-07-25T05:30:25.620Z,4.12
2022-07-25T05:33:32.817Z,3.70
2022-07-25T05:36:45.474Z,3.80
2022-07-25T05:40:16.291Z,3.67
2022-07-25T05:43:40.530Z,4.07
2022-07-25T05:46:45.196Z,4.00
2022-07-25T05:49:51.918Z,4.00
2022-07-25T05:52:59.380Z,3.45
2022-07-25T05:56:15.969Z,3.70
2022-07-25T05:59:19.800Z,3.80
2022-07-25T06:02:23.281Z,3.42
2022-07-25T06:05:26.971Z,3.55
2022-07-25T06:08:31.187Z,4.00
2022-07-25T06:14:39.919Z,3.67
2022-07-25T06:17:44.193Z,3.28
2022-07-25T06:20:49.657Z,3.72
2022-07-25T06:23:53.479Z,3.70
2022-07-25T06:26:57.500Z,3.87
2022-07-25T06:30:00.827Z,3.62
2022-07-25T06:33:03.924Z,3.80
2022-07-25T06:36:07.664Z,4.47
2022-07-25T06:39:11.107Z,3.90
2022-07-25T06:46:53.855Z,4.00
2022-07-25T06:49:58.999Z,3.78
2022-07-25T06:53:02.799Z,3.75
2022-07-25T07:01:03.847Z,3.95
2022-07-25T07:04:33.667Z,3.53
2022-07-25T07:07:37.087Z,3.50
2022-07-25T07:10:40.822Z,3.70
2022-07-25T07:13:44.947Z,3.30
2022-07-25T07:16:48.110Z,4.07
2022-07-25T07:19:53.597Z,3.65
2022-07-25T07:23:45.160Z,3.20
2022-07-25T07:26:55.665Z,3.20
2022-07-25T07:34:19.000Z,3.00
2022-07-25T07:37:22.815Z,3.30
2022-07-25T07:40:29.165Z,3.00
2022-07-25T07:43:46.584Z,2.90
2022-07-25T07:46:50.589Z,3.00
2022-07-25T07:49:59.946Z,3.30
2022-07-25T07:58:21.006Z,3.12
2022-07-25T08:05:46.716Z,2.75
2022-07-25T08:39:05.757Z,3.03
2022-07-25T08:42:13.421Z,3.15
2022-07-25T08:45:21.515Z,3.28
2022-07-25T08:48:45.778Z,2.90
2022-07-25T08:51:54.025Z,3.40
2022-07-25T08:55:10.961Z,3.03
2022-07-25T08:58:19.006Z,3.33
2022-07-25T09:06:00.790Z,2.90
2022-07-25T09:16:59.590Z,3.25
2022-07-25T09:24:40.375Z,3.33
2022-07-25T09:27:43.719Z,2.70
2022-07-25T09:30:57.878Z,3.30
2022-07-25T09:45:03.339Z,2.90
2022-07-25T09:48:43.963Z,3.03
2022-07-25T09:51:48.906Z,3.53
2022-07-25T09:54:55.476Z,3.20
2022-07-25T09:58:02.891Z,3.10
2022-07-25T10:01:42.951Z,3.42
2022-07-25T10:05:33.954Z,2.90
2022-07-25T10:08:42.338Z,2.72
2022-07-25T10:12:08.047Z,3.12
2022-07-25T10:15:14.543Z,3.05
2022-07-25T10:18:21.887Z,3.30
2022-07-25T10:21:29.773Z,2.90
2022-07-25T10:29:23.012Z,3.00
2022-07-25T10:32:35.532Z,2.72
2022-07-25T10:35:56.406Z,2.55
2022-07-25T10:43:20.079Z,2.62
2022-07-25T10:46:27.380Z,3.00
2022-07-25T10:50:13.471Z,2.60
2022-07-25T10:53:11.940Z,2.80
2022-07-25T10:56:16.305Z,2.77
2022-07-25T10:59:47.775Z,2.70
2022-07-25T11:03:08.235Z,2.97
2022-07-25T11:06:33.801Z,2.60
2022-07-25T11:09:57.090Z,3.00
2022-07-25T11:13:21.869Z,2.93
2022-07-25T11:16:29.608Z,2.75
2022-07-25T11:19:35.853Z,2.40
2022-07-25T11:22:40.013Z,2.80
2022-07-25T11:25:43.856Z,2.67
2022-07-25T11:28:49.415Z,2.90
2022-07-25T11:32:08.626Z,2.75
2022-07-25T11:35:13.489Z,2.60
2022-07-25T11:38:17.120Z,2.60
2022-07-25T11:41:29.967Z,2.78
2022-07-25T11:44:48.337Z,2.60
2022-07-25T11:48:08.581Z,2.50
2022-07-25T11:51:18.874Z,2.42
2022-07-25T11:54:22.830Z,2.58
2022-07-25T12:02:02.679Z,2.55
2022-07-25T12:05:13.121Z,2.58
2022-07-25T12:08:18.655Z,3.17
2022-07-25T12:11:29.609Z,2.47
2022-07-25T12:14:47.717Z,2.70
2022-07-25T12:17:52.549Z,3.15
2022-07-25T12:20:55.772Z,2.60
2022-07-25T12:23:59.173Z,2.70
2022-07-25T12:27:02.116Z,2.30
2022-07-25T12:30:10.122Z,2.85
2022-07-25T12:33:13.616Z,2.62
2022-07-25T12:36:18.716Z,2.55
2022-07-25T12:39:21.875Z,2.45
2022-07-25T12:42:26.065Z,2.45
2022-07-25T12:45:30.347Z,2.30
2022-07-25T12:48:37.471Z,2.37
2022-07-25T12:51:45.403Z,2.53
2022-07-25T12:54:51.039Z,2.50
2022-07-25T12:57:54.269Z,2.08
2022-07-25T13:04:09.306Z,3.10
2022-07-25T13:07:16.370Z,2.40
2022-07-25T13:10:38.590Z,2.47
2022-07-25T13:13:42.791Z,2.10
2022-07-25T13:16:47.330Z,2.20
2022-07-25T13:19:50.563Z,2.80
2022-07-25T13:22:53.391Z,2.20
2022-07-25T13:25:56.690Z,2.50
2022-07-25T13:29:00.305Z,2.58
2022-07-25T13:32:04.104Z,2.40
2022-07-25T13:35:20.394Z,2.33
2022-07-25T13:38:24.411Z,2.37
2022-07-25T13:41:27.986Z,2.50
2022-07-25T13:48:28.441Z,2.40
2022-07-25T13:51:29.843Z,2.58
2022-07-25T13:57:38.481Z,2.40
2022-07-25T14:00:42.262Z,2.62
2022-07-25T14:04:11.538Z,2.03
2022-07-25T14:07:35.781Z,2.37
2022-07-25T14:14:31.331Z,2.47
2022-07-25T14:17:39.112Z,2.30
2022-07-25T14:28:06.260Z,2.28
2022-07-25T14:35:48.801Z,2.55
2022-07-25T14:38:56.082Z,2.53
2022-07-25T14:41:59.617Z,2.10
2022-07-25T14:45:04.558Z,2.47
2022-07-25T14:48:08.882Z,2.50
2022-07-25T14:54:58.758Z,2.17
2022-07-25T14:58:05.617Z,2.33
2022-07-25T15:01:09.593Z,2.40
2022-07-25T15:04:33.362Z,2.37
2022-07-25T15:16:07.260Z,2.25
2022-07-25T15:19:18.242Z,2.60
2022-07-25T15:22:21.503Z,2.75
2022-07-25T15:26:00.116Z,2.42
2022-07-25T15:28:48.887Z,2.30
2022-07-25T15:32:03.616Z,2.30
2022-07-25T15:35:09.639Z,2.35
2022-07-25T15:38:14.090Z,2.20
2022-07-25T15:41:23.138Z,2.30
2022-07-25T15:44:26.433Z,3.12
2022-07-25T15:52:55.844Z,2.40
2022-07-25T15:55:44.198Z,2.37
2022-07-25T15:59:00.285Z,2.20
2022-07-25T16:02:08.480Z,2.40
2022-07-25T16:05:11.446Z,2.60
2022-07-25T16:08:18.279Z,3.10
2022-07-25T16:11:21.901Z,2.12
2022-07-25T16:14:26.440Z,2.40
2022-07-25T16:17:31.165Z,2.10
2022-07-25T16:20:34.224Z,2.30
2022-07-25T20:02:17.681Z,3.40
2022-07-25T20:05:28.525Z,3.10
2022-07-25T20:08:40.494Z,2.85
2022-07-25T20:12:09.111Z,3.00
2022-07-25T20:16:16.916Z,3.28
2022-07-25T20:24:14.206Z,2.83
2022-07-25T20:27:21.131Z,2.47
2022-07-25T20:31:04.756Z,2.78
2022-07-25T20:35:15.460Z,3.37
2022-07-25T20:39:03.929Z,3.47
2022-07-25T21:01:58.338Z,3.28
2022-07-25T21:05:02.364Z,3.37
2022-07-25T21:08:07.014Z,3.22
2022-07-25T21:11:45.996Z,3.25
2022-07-25T21:19:05.016Z,2.97
2022-07-25T21:22:10.664Z,3.47
2022-07-25T21:25:15.396Z,3.30
2022-07-25T21:28:19.110Z,3.15
2022-07-25T21:31:27.001Z,2.92
2022-07-25T21:34:30.947Z,2.90
2022-07-25T21:37:34.586Z,3.03
2022-07-25T21:40:40.611Z,3.60
2022-07-25T21:43:45.478Z,2.87
2022-07-25T21:46:54.958Z,3.25
2022-07-25T21:50:31.909Z,2.95
2022-07-25T21:53:42.545Z,2.80
2022-07-25T21:56:46.345Z,2.75
2022-07-25T21:59:50.410Z,3.20
2022-07-25T22:02:57.511Z,3.00
2022-07-25T22:06:03.251Z,2.92
2022-07-25T22:09:07.639Z,2.83
2022-07-25T22:12:11.415Z,2.55
2022-07-25T22:15:16.613Z,2.50
2022-07-25T22:18:23.821Z,2.37
2022-07-25T22:21:29.154Z,2.80
2022-07-25T22:24:46.750Z,2.70
2022-07-25T22:27:55.008Z,2.47
2022-07-25T22:30:59.103Z,2.80
2022-07-25T22:34:02.533Z,2.80
2022-07-25T22:37:06.060Z,2.60
2022-07-25T22:40:33.932Z,3.60
2022-07-25T22:43:57.278Z,3.12
2022-07-25T22:47:02.418Z,3.30
2022-07-25T22:50:09.911Z,3.20
2022-07-25T22:53:13.724Z,2.90
2022-07-25T22:56:17.697Z,3.42
2022-07-25T22:59:28.350Z,2.63
2022-07-25T23:02:35.180Z,2.62
2022-07-25T23:05:40.645Z,2.90
2022-07-25T23:08:50.498Z,2.80
2022-07-25T23:11:54.978Z,2.42
2022-07-25T23:15:19.013Z,2.47
2022-07-25T23:22:13.437Z,3.20
2022-07-25T23:25:16.836Z,2.92
2022-07-25T23:28:21.141Z,2.85
2022-07-25T23:34:27.584Z,2.83
2022-07-25T23:37:31.529Z,2.62
2022-07-25T23:40:35.075Z,2.65
2022-07-25T23:43:56.038Z,2.75
2022-07-25T23:47:00.465Z,2.80
2022-07-25T23:50:06.261Z,2.62
2022-07-25T23:53:39.106Z,2.58
2022-07-25T23:57:23.362Z,2.90
